AirNav   Phillips 66 Aviation Fuel
 
 1570 users online  

H92 Hominy Municipal Airport
Hominy, Oklahoma, USA

GOING TO HOMINY?


FAA INFORMATION EFFECTIVE 29 MARCH 2018

Location

FAA Identifier: H92
Lat/Long: 36-26-33.9000N / 096-23-14.0000W
36-26.565000N / 096-23.233333W
36.4427500 / -96.3872222
(estimated)
Elevation: 825 ft. / 251 m (estimated)
Variation: 06E (1985)
From city: 2 miles N of HOMINY, OK
Time zone: UTC -5 (UTC -6 during Standard Time)
Zip code: 74035

Airport Operations

Airport use: Open to the public
Activation date: 04/1947
Control tower: no
ARTCC: KANSAS CITY CENTER
FSS: MC ALESTER FLIGHT SERVICE STATION
NOTAMs facility: MLC (NOTAM-D service available)
Attendance: UNATNDD
Wind indicator: lighted
Segmented circle: yes
Lights: ACTVT MIRL RY 17/35 - CTAF.
Beacon: white-green (lighted land airport)
Operates sunset to sunrise.

Airport Communications

CTAF: 122.9
WX AWOS-3 at OWP (20 nm SE): 118.325 (918-246-2635)

Nearby radio navigation aids

VOR radial/distance  VOR name  Freq  Var
BVOr209/29.4BARTLESVILLE VOR/DME117.9008E
TULr289/32.5TULSA VORTAC114.4008E
SWOr062/36.0STILLWATER VOR/DME108.4007E
GNPr321/37.3GLENPOOL VOR/DME110.6006E

 
NDB name  Hdg/Dist  Freq  Var  ID
WILLIAM POGUE319/19.736206EOWP --- .-- .--.
CUSHING024/38.124205ECUH -.-. ..- ....

Airport Services

Fuel available: 100LL
FUEL AVBL 24 HRS SELF SERVICE WITH CREDIT CARD.
Parking: tiedowns
Airframe service: NONE
Powerplant service: NONE
Bottled oxygen: NONE
Bulk oxygen: NONE

Runway Information

Runway 17/35

Dimensions: 3210 x 60 ft. / 978 x 18 m
Surface: asphalt, in fair condition
Weight bearing capacity: 
Single wheel: 8.0
Runway edge lights: medium intensity
RUNWAY 17  RUNWAY 35
Latitude: 36-26.829500N36-26.300500N
Longitude: 096-23.233500W096-23.233500W
Elevation: 819.0 ft.820.0 ft.
Gradient: 0.2%0.2%
Traffic pattern: leftleft
Runway heading: 174 magnetic, 180 true354 magnetic, 000 true
Displaced threshold: 180 ft.180 ft.
Markings: basic, in fair conditionbasic, in fair condition
Visual slope indicator: 4-light PAPI on left4-light PAPI on left
Obstructions: 15 ft. trees, 430 ft. from runway, 15:1 slope to clear13 ft. trees, 240 ft. from runway, 120 ft. right of centerline, 3:1 slope to clear

Airport Ownership and Management from official FAA records

Ownership: Publicly-owned
Owner: CITY OF HOMINY
219 W. 1ST ST., PO BOX 219
HOMINY, OK 74035
Phone 918-885-2164
Manager: DANI MULLINS
219 W. 1ST ST., PO BOX 219
HOMINY, OK 74035
Phone 918-885-2164
CITY CLERK.

Airport Operational Statistics

Aircraft based on the field: 3
Single engine airplanes: 1
Ultralights: 2
    
Aircraft operations: avg 33/month *
100% transient general aviation
* for 12-month period ending 10 May 2016

Additional Remarks

ULTRALIGHT ACTIVITY ON & INVOF ARPT.

Instrument Procedures

There are no published instrument procedures at H92.

Some nearby airports with instrument procedures:

KOWP - William R Pogue Municipal Airport (20 nm SE)
KBVO - Bartlesville Municipal Airport (26 nm NE)
KTUL - Tulsa International Airport (28 nm SE)
KRVS - Richard Lloyd Jones Jr Airport (31 nm SE)
KCUH - Cushing Municipal Airport (35 nm SW)
 
Loc | Ops | Rwys | IFR | FBO | Links
Com | Nav | Svcs | Stats | Notes

AirNav Hotels Sweepstakes
 
Area around H92 (Hominy Municipal Airport)
 
Road maps at: MapQuest Bing Google
 
Aerial photo
WARNING: Photo may not be current or correct
Aerial photo of H92 (Hominy Municipal Airport)
Photo by David Heon
Taken in September 2016
looking west

Do you have a better or more recent aerial photo of Hominy Municipal Airport that you would like to share? If so, please send us your photo.

 
Sectional chart

 
Airport distance calculator
Flying to Hominy Municipal Airport? Find the distance to fly.

From to H92

Sunrise and sunset
Times for 25-Apr-2018
 Local
(UTC-5)
 Zulu
(UTC)
Morning civil twilight06:1311:13
Sunrise06:4011:40
Sunset20:0701:07
Evening civil twilight20:3401:34

Current date and time
Zulu (UTC)  25-Apr-2018 14:51:37
Local (UTC-5)  25-Apr-2018 09:51:37
 
METAR
KOWP 
20nm SE 
251435Z AUTO 29004KT 3SM RA BKN004 BKN013 OVC036 13/12 A3018 RMK AO2 P0002 T01260117
KBVO 
26nm NE 
251353Z AUTO 00000KT 6SM -RA BR OVC013 11/10 A3019 RMK AO2 SLP218 P0003 T01110100
KTUL 
28nm SE 
251426Z 13007KT 3SM -RA BR BKN080 OVC095 12/11 A3014 RMK AO2 P0005 T01170106
KRVS 
31nm SE 
251403Z 02003KT 3SM -RA BR BKN060 OVC070 12/11 A3019 RMK AO2 P0000 T01170106
KCUH 
35nm SW 
251435Z AUTO 30008KT 7SM RA BKN006 BKN013 OVC026 09/08 A3020 RMK AO2 P0006 T00900083
KSWO 
38nm SW 
251353Z 30007KT 10SM -RA OVC008 08/07 A3022 RMK AO2 SLP230 P0005 T00830072
KPNC 
39nm NW 
251434Z AUTO 33007KT 10SM -RA OVC012 08/07 A3021 RMK AO2 P0003 T00830067
TAF
KBVO 
26nm NE 
251134Z 2512/2612 34010KT 6SM -SHRA OVC025 FM251500 35010KT 5SM -SHRA BR OVC007 FM252100 35007KT 6SM -SHRA OVC012 FM260200 33007KT P6SM OVC012
KTUL 
28nm SE 
251134Z 2512/2612 34010KT 6SM -SHRA OVC025 FM251500 35012KT 5SM -SHRA BR OVC007 FM252100 35010KT 6SM -SHRA OVC012 FM260200 33007KT P6SM OVC012
KRVS 
31nm SE 
251134Z 2512/2612 34010KT 6SM -SHRA OVC025 FM251500 35012KT 5SM -SHRA BR OVC007 FM252100 35010KT 6SM -SHRA OVC012 FM260200 33007KT P6SM OVC012
NOTAMs
Click for the latest NOTAMs
NOTAMs are issued by the DoD/FAA and will open in a separate window not controlled by AirNav.

 

 
 

FBO, Fuel Providers, and Aircraft Ground Support

  
 Business Name 
 
 Contact 
 
 Services / Description 
 
Fuel Prices
 
Comments
  
City of Hominy 918-885-2164
no information available

If you are affiliated with City of Hominy and would like to show here your services, contact info, web link, logo, and more, click here
100LL
SS $3.50 
 Updated 12-Apr-2018
 
   2 read write
SS=Self service
Update Fuel Prices
 

Would you like to see your business listed on this page?

 If your business provides an interesting product or service to pilots, flight crews, aircraft, or users of the Hominy Municipal Airport, you should consider listing it here.  To start the listing process, click on the button below
 
Add a business
 

Other Pages about Hominy Municipal Airport

Update a link
 
Copyright © AirNav, LLC. All rights reserved. Privacy Policy  Contact